Fairfield, CT (06824)

6:44 PM EST on February 10, 2016 (GMT -0500)
Fairfield Police Department | | Change Station
CLOSE
Current Station
Personal Weather Station
Location: Fairfield, CT
Elevation: 26 ft
Nearby Weather Stations

Elev 26 ft 41.14 °N, 73.26 °W | Updated 12 minutes ago

Partly Cloudy
Partly Cloudy
36.3 °F
Feels Like 36 °F
N
0.0
Wind Variable Wind from WNW
Gusts 8.0 mph

Today
High -- | Low -- °F
--% Chance of Precip.
Yesterday
High -- | Low -- °F
Precip. -- in
Pressure 29.66 in
Visibility 10.0 miles
Clouds Clear
Windchill 36 °F
Dew Point 23 °F
Humidity 58%
Rainfall 0.04 in
Snow Depth Not available.
6:54 AM 5:20 PM
Waxing Crescent, 8% visible
METAR KBDR 102252Z 26006KT 10SM CLR 02/M06 A2966 RMK AO2 SLP043 T00171061
Pressure 29.66 in
Visibility 10.0 miles
Clouds Clear
Windchill 36 °F
Dew Point 23 °F
Humidity 58%
Rainfall 0.04 in
Snow Depth Not available.
6:54 AM 5:20 PM
Waxing Crescent, 8% visible
METAR KBDR 102252Z 26006KT 10SM CLR 02/M06 A2966 RMK AO2 SLP043 T00171061

10-Day Weather Forecast

Almanac

Astronomy

Feb. 10, 2016 Rise Set
Actual Time
Civil Twilight
Nautical Twilight
Astronomical Twilight
Moon
Length of Visible Light
Length of Day
Tomorrow will be .
, % of the Moon is Illuminated

Today's Extremes

State Highs State Lows

Community

WunderPhotos

Upload Photos

1,891,935 photos uploaded!

WunderBlog® & News

Nearby

Air Quality

  Air Quality AQ Index Pollutant
Not available.

Snow Depth

Station Depth Elevation

Earthquake Activity

City Distance Mag. Time & Date
Minimum magnitude displayed is 2.5.

Coastal Water Temperatures

Place Temperature

Stations

Nearby Weather Stations

Station Location Temp. Windchill Dew Point Humidity Wind Precip. Elev Updated Type
                   

Watches & Warnings

There are currently no watches in effect.